sensor_id;sensor_type;location;lat;lon;timestamp;P1;durP1;ratioP1;P2;durP2;ratioP2
1977;SDS011;989;53.016;8.346;2022-12-11T00:00:00;44.90;;;17.40;;
1977;SDS011;989;53.016;8.346;2022-12-11T00:02:27;45.00;;;17.38;;
1977;SDS011;989;53.016;8.346;2022-12-11T00:04:53;47.28;;;18.42;;
1977;SDS011;989;53.016;8.346;2022-12-11T00:07:19;39.80;;;17.10;;
1977;SDS011;989;53.016;8.346;2022-12-11T00:09:44;41.03;;;19.60;;
1977;SDS011;989;53.016;8.346;2022-12-11T00:12:10;29.23;;;12.27;;
1977;SDS011;989;53.016;8.346;2022-12-11T00:14:35;45.53;;;17.20;;
1977;SDS011;989;53.016;8.346;2022-12-11T00:17:01;41.77;;;16.10;;
1977;SDS011;989;53.016;8.346;2022-12-11T00:19:27;38.93;;;15.73;;
1977;SDS011;989;53.016;8.346;2022-12-11T00:21:53;33.53;;;16.43;;
1977;SDS011;989;53.016;8.346;2022-12-11T00:24:18;44.00;;;17.87;;
1977;SDS011;989;53.016;8.346;2022-12-11T00:26:44;48.37;;;17.40;;
1977;SDS011;989;53.016;8.346;2022-12-11T00:29:10;44.80;;;18.60;;
1977;SDS011;989;53.016;8.346;2022-12-11T00:31:39;40.60;;;16.70;;
1977;SDS011;989;53.016;8.346;2022-12-11T00:34:06;49.10;;;18.70;;
1977;SDS011;989;53.016;8.346;2022-12-11T00:36:32;45.13;;;19.02;;
1977;SDS011;989;53.016;8.346;2022-12-11T00:39:00;38.40;;;18.65;;
1977;SDS011;989;53.016;8.346;2022-12-11T00:41:26;41.70;;;17.73;;
1977;SDS011;989;53.016;8.346;2022-12-11T00:43:52;57.23;;;19.00;;
1977;SDS011;989;53.016;8.346;2022-12-11T00:46:18;47.50;;;18.07;;
1977;SDS011;989;53.016;8.346;2022-12-11T00:48:43;46.10;;;18.07;;
1977;SDS011;989;53.016;8.346;2022-12-11T00:51:10;42.17;;;18.33;;
1977;SDS011;989;53.016;8.346;2022-12-11T00:53:37;51.60;;;18.75;;
1977;SDS011;989;53.016;8.346;2022-12-11T00:58:55;35.88;;;17.83;;
1977;SDS011;989;53.016;8.346;2022-12-11T01:01:22;44.27;;;18.00;;
1977;SDS011;989;53.016;8.346;2022-12-11T01:03:49;56.13;;;20.35;;
1977;SDS011;989;53.016;8.346;2022-12-11T01:06:20;47.80;;;19.65;;
1977;SDS011;989;53.016;8.346;2022-12-11T01:08:51;40.63;;;20.02;;
1977;SDS011;989;53.016;8.346;2022-12-11T01:11:38;50.53;;;22.13;;
1977;SDS011;989;53.016;8.346;2022-12-11T01:14:04;50.92;;;18.45;;
1977;SDS011;989;53.016;8.346;2022-12-11T01:16:31;59.65;;;18.83;;
1977;SDS011;989;53.016;8.346;2022-12-11T01:18:57;39.77;;;18.77;;
1977;SDS011;989;53.016;8.346;2022-12-11T01:21:23;47.25;;;18.33;;
1977;SDS011;989;53.016;8.346;2022-12-11T01:23:49;33.73;;;18.20;;
1977;SDS011;989;53.016;8.346;2022-12-11T01:26:15;55.58;;;18.85;;
1977;SDS011;989;53.016;8.346;2022-12-11T01:28:43;52.35;;;19.27;;
1977;SDS011;989;53.016;8.346;2022-12-11T01:31:09;43.10;;;17.30;;
1977;SDS011;989;53.016;8.346;2022-12-11T01:33:38;56.60;;;17.45;;
1977;SDS011;989;53.016;8.346;2022-12-11T01:36:05;51.20;;;20.63;;
1977;SDS011;989;53.016;8.346;2022-12-11T01:38:38;49.53;;;21.13;;
1977;SDS011;989;53.016;8.346;2022-12-11T01:41:04;42.45;;;17.67;;
1977;SDS011;989;53.016;8.346;2022-12-11T01:43:30;43.83;;;19.20;;
1977;SDS011;989;53.016;8.346;2022-12-11T01:45:56;47.00;;;17.77;;
1977;SDS011;989;53.016;8.346;2022-12-11T01:48:22;46.67;;;18.43;;
1977;SDS011;989;53.016;8.346;2022-12-11T01:50:53;47.40;;;18.15;;
1977;SDS011;989;53.016;8.346;2022-12-11T01:53:24;42.67;;;19.25;;
1977;SDS011;989;53.016;8.346;2022-12-11T01:55:56;43.40;;;16.92;;
1977;SDS011;989;53.016;8.346;2022-12-11T01:58:23;43.88;;;18.70;;
1977;SDS011;989;53.016;8.346;2022-12-11T02:00:55;44.05;;;21.77;;
1977;SDS011;989;53.016;8.346;2022-12-11T02:03:22;56.72;;;19.15;;
1977;SDS011;989;53.016;8.346;2022-12-11T02:05:48;44.83;;;18.37;;
1977;SDS011;989;53.016;8.346;2022-12-11T02:08:14;52.17;;;20.23;;
1977;SDS011;989;53.016;8.346;2022-12-11T02:10:47;42.08;;;20.02;;
1977;SDS011;989;53.016;8.346;2022-12-11T02:13:43;54.88;;;19.05;;
1977;SDS011;989;53.016;8.346;2022-12-11T02:16:45;49.95;;;17.92;;
1977;SDS011;989;53.016;8.346;2022-12-11T02:22:01;45.70;;;17.13;;
1977;SDS011;989;53.016;8.346;2022-12-11T02:30:37;47.95;;;19.98;;
1977;SDS011;989;53.016;8.346;2022-12-11T02:33:06;47.75;;;19.77;;
1977;SDS011;989;53.016;8.346;2022-12-11T02:35:39;42.55;;;18.45;;
1977;SDS011;989;53.016;8.346;2022-12-11T02:38:09;46.60;;;18.75;;
1977;SDS011;989;53.016;8.346;2022-12-11T02:40:43;45.08;;;18.65;;
1977;SDS011;989;53.016;8.346;2022-12-11T02:43:11;39.08;;;18.67;;
1977;SDS011;989;53.016;8.346;2022-12-11T02:45:40;55.05;;;20.83;;
1977;SDS011;989;53.016;8.346;2022-12-11T02:48:08;66.85;;;21.65;;
1977;SDS011;989;53.016;8.346;2022-12-11T02:50:36;46.17;;;20.83;;
1977;SDS011;989;53.016;8.346;2022-12-11T02:53:07;76.63;;;19.55;;
1977;SDS011;989;53.016;8.346;2022-12-11T02:55:37;47.30;;;19.20;;
1977;SDS011;989;53.016;8.346;2022-12-11T02:58:08;41.20;;;18.13;;
1977;SDS011;989;53.016;8.346;2022-12-11T03:00:43;46.33;;;17.95;;
1977;SDS011;989;53.016;8.346;2022-12-11T03:03:09;42.00;;;17.77;;
1977;SDS011;989;53.016;8.346;2022-12-11T03:05:36;37.83;;;17.60;;
1977;SDS011;989;53.016;8.346;2022-12-11T03:08:02;51.97;;;20.08;;
1977;SDS011;989;53.016;8.346;2022-12-11T03:10:28;56.33;;;21.42;;
1977;SDS011;989;53.016;8.346;2022-12-11T03:12:54;45.20;;;18.40;;
1977;SDS011;989;53.016;8.346;2022-12-11T03:15:27;46.55;;;19.77;;
1977;SDS011;989;53.016;8.346;2022-12-11T03:18:13;45.03;;;16.90;;
1977;SDS011;989;53.016;8.346;2022-12-11T03:20:53;47.78;;;15.77;;
1977;SDS011;989;53.016;8.346;2022-12-11T03:23:36;48.75;;;18.02;;
1977;SDS011;989;53.016;8.346;2022-12-11T03:26:11;43.15;;;16.50;;
1977;SDS011;989;53.016;8.346;2022-12-11T03:31:29;53.15;;;19.50;;
1977;SDS011;989;53.016;8.346;2022-12-11T03:34:13;47.40;;;17.67;;
1977;SDS011;989;53.016;8.346;2022-12-11T03:36:51;49.53;;;17.83;;
1977;SDS011;989;53.016;8.346;2022-12-11T03:39:30;62.00;;;18.13;;
1977;SDS011;989;53.016;8.346;2022-12-11T03:42:00;50.03;;;18.08;;
1977;SDS011;989;53.016;8.346;2022-12-11T03:44:30;48.35;;;19.63;;
1977;SDS011;989;53.016;8.346;2022-12-11T03:46:57;46.00;;;18.65;;
1977;SDS011;989;53.016;8.346;2022-12-11T03:49:26;48.45;;;19.48;;
1977;SDS011;989;53.016;8.346;2022-12-11T03:51:58;42.05;;;18.60;;
1977;SDS011;989;53.016;8.346;2022-12-11T03:54:26;71.78;;;20.85;;
1977;SDS011;989;53.016;8.346;2022-12-11T03:56:54;54.88;;;20.33;;
1977;SDS011;989;53.016;8.346;2022-12-11T03:59:22;49.75;;;21.63;;
1977;SDS011;989;53.016;8.346;2022-12-11T04:01:48;43.70;;;19.00;;
1977;SDS011;989;53.016;8.346;2022-12-11T04:04:15;52.70;;;19.80;;
1977;SDS011;989;53.016;8.346;2022-12-11T04:06:40;53.80;;;19.17;;
1977;SDS011;989;53.016;8.346;2022-12-11T04:09:06;54.60;;;20.10;;
1977;SDS011;989;53.016;8.346;2022-12-11T04:11:32;57.87;;;19.57;;
1977;SDS011;989;53.016;8.346;2022-12-11T04:14:07;40.83;;;20.38;;
1977;SDS011;989;53.016;8.346;2022-12-11T04:16:54;46.30;;;18.42;;
1977;SDS011;989;53.016;8.346;2022-12-11T04:19:22;53.17;;;20.10;;
1977;SDS011;989;53.016;8.346;2022-12-11T04:22:10;58.10;;;19.00;;
1977;SDS011;989;53.016;8.346;2022-12-11T04:24:57;62.40;;;23.60;;
1977;SDS011;989;53.016;8.346;2022-12-11T04:27:22;46.00;;;18.93;;
1977;SDS011;989;53.016;8.346;2022-12-11T04:30:08;65.82;;;20.77;;
1977;SDS011;989;53.016;8.346;2022-12-11T04:32:38;66.97;;;21.17;;
1977;SDS011;989;53.016;8.346;2022-12-11T04:35:04;48.73;;;18.87;;
1977;SDS011;989;53.016;8.346;2022-12-11T04:37:32;46.28;;;19.80;;
1977;SDS011;989;53.016;8.346;2022-12-11T04:39:58;49.20;;;20.07;;
1977;SDS011;989;53.016;8.346;2022-12-11T04:42:23;55.20;;;20.70;;
1977;SDS011;989;53.016;8.346;2022-12-11T04:44:49;52.83;;;20.07;;
1977;SDS011;989;53.016;8.346;2022-12-11T04:47:15;60.57;;;22.97;;
1977;SDS011;989;53.016;8.346;2022-12-11T04:49:40;61.67;;;21.23;;
1977;SDS011;989;53.016;8.346;2022-12-11T04:52:06;58.97;;;20.57;;
1977;SDS011;989;53.016;8.346;2022-12-11T04:54:32;82.53;;;21.03;;
1977;SDS011;989;53.016;8.346;2022-12-11T04:56:57;58.57;;;21.57;;
1977;SDS011;989;53.016;8.346;2022-12-11T04:59:23;61.00;;;21.50;;
1977;SDS011;989;53.016;8.346;2022-12-11T05:01:49;56.60;;;18.80;;
1977;SDS011;989;53.016;8.346;2022-12-11T05:04:14;59.30;;;21.77;;
1977;SDS011;989;53.016;8.346;2022-12-11T05:06:40;55.70;;;19.70;;
1977;SDS011;989;53.016;8.346;2022-12-11T05:09:09;47.53;;;21.20;;
1977;SDS011;989;53.016;8.346;2022-12-11T05:11:36;50.50;;;21.30;;
1977;SDS011;989;53.016;8.346;2022-12-11T05:14:02;58.83;;;19.67;;
1977;SDS011;989;53.016;8.346;2022-12-11T05:16:29;73.28;;;21.70;;
1977;SDS011;989;53.016;8.346;2022-12-11T05:18:54;72.60;;;19.10;;
1977;SDS011;989;53.016;8.346;2022-12-11T05:21:20;76.83;;;19.73;;
1977;SDS011;989;53.016;8.346;2022-12-11T05:23:46;75.03;;;17.93;;
1977;SDS011;989;53.016;8.346;2022-12-11T05:26:13;88.73;;;21.23;;
1977;SDS011;989;53.016;8.346;2022-12-11T05:28:43;78.05;;;16.00;;
1977;SDS011;989;53.016;8.346;2022-12-11T05:31:11;89.35;;;22.17;;
1977;SDS011;989;53.016;8.346;2022-12-11T05:33:41;101.78;;;23.92;;
1977;SDS011;989;53.016;8.346;2022-12-11T05:36:08;65.35;;;17.23;;
1977;SDS011;989;53.016;8.346;2022-12-11T05:38:40;131.63;;;24.67;;
1977;SDS011;989;53.016;8.346;2022-12-11T05:41:06;97.07;;;19.27;;
1977;SDS011;989;53.016;8.346;2022-12-11T05:43:34;91.05;;;20.73;;
1977;SDS011;989;53.016;8.346;2022-12-11T05:46:07;90.32;;;22.00;;
1977;SDS011;989;53.016;8.346;2022-12-11T05:48:43;82.38;;;20.73;;
1977;SDS011;989;53.016;8.346;2022-12-11T05:51:11;69.07;;;16.50;;
1977;SDS011;989;53.016;8.346;2022-12-11T05:53:38;68.28;;;18.30;;
1977;SDS011;989;53.016;8.346;2022-12-11T05:56:06;79.38;;;19.60;;
1977;SDS011;989;53.016;8.346;2022-12-11T05:58:36;79.22;;;17.25;;
1977;SDS011;989;53.016;8.346;2022-12-11T06:01:05;79.30;;;17.08;;
1977;SDS011;989;53.016;8.346;2022-12-11T06:03:33;61.53;;;18.90;;
1977;SDS011;989;53.016;8.346;2022-12-11T06:06:02;63.30;;;19.50;;
1977;SDS011;989;53.016;8.346;2022-12-11T06:08:30;74.55;;;17.92;;
1977;SDS011;989;53.016;8.346;2022-12-11T06:10:56;60.75;;;15.73;;
1977;SDS011;989;53.016;8.346;2022-12-11T06:13:22;52.78;;;14.70;;
1977;SDS011;989;53.016;8.346;2022-12-11T06:15:48;58.60;;;18.70;;
1977;SDS011;989;53.016;8.346;2022-12-11T06:18:14;86.63;;;18.73;;
1977;SDS011;989;53.016;8.346;2022-12-11T06:20:40;65.40;;;19.13;;
1977;SDS011;989;53.016;8.346;2022-12-11T06:23:05;58.57;;;16.13;;
1977;SDS011;989;53.016;8.346;2022-12-11T06:25:31;56.93;;;17.03;;
1977;SDS011;989;53.016;8.346;2022-12-11T06:27:57;67.97;;;20.55;;
1977;SDS011;989;53.016;8.346;2022-12-11T06:30:23;54.35;;;17.65;;
1977;SDS011;989;53.016;8.346;2022-12-11T06:32:49;64.23;;;17.27;;
1977;SDS011;989;53.016;8.346;2022-12-11T06:35:14;72.60;;;16.30;;
1977;SDS011;989;53.016;8.346;2022-12-11T06:37:40;82.40;;;17.97;;
1977;SDS011;989;53.016;8.346;2022-12-11T06:40:06;59.37;;;15.50;;
1977;SDS011;989;53.016;8.346;2022-12-11T06:42:34;62.65;;;18.45;;
1977;SDS011;989;53.016;8.346;2022-12-11T06:45:00;53.47;;;15.67;;
1977;SDS011;989;53.016;8.346;2022-12-11T06:47:26;77.87;;;18.83;;
1977;SDS011;989;53.016;8.346;2022-12-11T06:49:56;63.20;;;16.33;;
1977;SDS011;989;53.016;8.346;2022-12-11T06:52:22;62.63;;;16.03;;
1977;SDS011;989;53.016;8.346;2022-12-11T06:54:51;54.95;;;15.05;;
1977;SDS011;989;53.016;8.346;2022-12-11T06:57:17;75.40;;;17.60;;
1977;SDS011;989;53.016;8.346;2022-12-11T06:59:44;79.82;;;18.95;;
1977;SDS011;989;53.016;8.346;2022-12-11T07:02:19;59.67;;;17.77;;
1977;SDS011;989;53.016;8.346;2022-12-11T07:04:45;58.40;;;15.57;;
1977;SDS011;989;53.016;8.346;2022-12-11T07:07:11;68.73;;;14.63;;
1977;SDS011;989;53.016;8.346;2022-12-11T07:09:37;70.70;;;17.20;;
1977;SDS011;989;53.016;8.346;2022-12-11T07:12:04;69.10;;;18.27;;
1977;SDS011;989;53.016;8.346;2022-12-11T07:14:31;76.55;;;17.25;;
1977;SDS011;989;53.016;8.346;2022-12-11T07:16:57;68.65;;;18.25;;
1977;SDS011;989;53.016;8.346;2022-12-11T07:19:24;69.95;;;19.92;;
1977;SDS011;989;53.016;8.346;2022-12-11T07:21:50;63.45;;;16.17;;
1977;SDS011;989;53.016;8.346;2022-12-11T07:24:16;78.35;;;15.25;;
1977;SDS011;989;53.016;8.346;2022-12-11T07:26:42;85.75;;;17.27;;
1977;SDS011;989;53.016;8.346;2022-12-11T07:29:07;73.77;;;17.00;;
1977;SDS011;989;53.016;8.346;2022-12-11T07:31:33;52.40;;;14.37;;
1977;SDS011;989;53.016;8.346;2022-12-11T07:34:00;70.13;;;14.30;;
1977;SDS011;989;53.016;8.346;2022-12-11T07:36:29;66.20;;;16.95;;
1977;SDS011;989;53.016;8.346;2022-12-11T07:38:55;62.72;;;15.30;;
1977;SDS011;989;53.016;8.346;2022-12-11T07:41:22;61.78;;;14.32;;
1977;SDS011;989;53.016;8.346;2022-12-11T07:43:48;43.97;;;15.03;;
1977;SDS011;989;53.016;8.346;2022-12-11T07:46:15;48.23;;;13.73;;
1977;SDS011;989;53.016;8.346;2022-12-11T07:48:44;63.70;;;16.40;;
1977;SDS011;989;53.016;8.346;2022-12-11T07:53:59;62.05;;;16.40;;
1977;SDS011;989;53.016;8.346;2022-12-11T07:56:27;51.38;;;14.65;;
1977;SDS011;989;53.016;8.346;2022-12-11T07:58:54;50.00;;;15.95;;
1977;SDS011;989;53.016;8.346;2022-12-11T08:01:21;59.10;;;13.82;;
1977;SDS011;989;53.016;8.346;2022-12-11T08:03:50;51.97;;;14.93;;
1977;SDS011;989;53.016;8.346;2022-12-11T08:06:17;38.67;;;11.38;;
1977;SDS011;989;53.016;8.346;2022-12-11T08:08:50;67.78;;;17.80;;
1977;SDS011;989;53.016;8.346;2022-12-11T08:11:19;55.42;;;13.43;;
1977;SDS011;989;53.016;8.346;2022-12-11T08:13:45;66.97;;;13.13;;
1977;SDS011;989;53.016;8.346;2022-12-11T08:16:12;73.83;;;14.30;;
1977;SDS011;989;53.016;8.346;2022-12-11T08:18:39;65.00;;;19.23;;
1977;SDS011;989;53.016;8.346;2022-12-11T08:21:06;70.25;;;18.42;;
1977;SDS011;989;53.016;8.346;2022-12-11T08:23:35;71.53;;;16.17;;
1977;SDS011;989;53.016;8.346;2022-12-11T08:26:02;53.45;;;13.70;;
1977;SDS011;989;53.016;8.346;2022-12-11T08:28:29;67.03;;;16.08;;
1977;SDS011;989;53.016;8.346;2022-12-11T08:30:55;52.00;;;16.37;;
1977;SDS011;989;53.016;8.346;2022-12-11T08:33:21;78.07;;;16.27;;
1977;SDS011;989;53.016;8.346;2022-12-11T08:35:47;45.67;;;14.13;;
1977;SDS011;989;53.016;8.346;2022-12-11T08:38:12;67.83;;;16.20;;
1977;SDS011;989;53.016;8.346;2022-12-11T08:40:38;53.23;;;14.47;;
1977;SDS011;989;53.016;8.346;2022-12-11T08:43:04;69.57;;;16.90;;
1977;SDS011;989;53.016;8.346;2022-12-11T08:45:29;64.77;;;13.77;;
1977;SDS011;989;53.016;8.346;2022-12-11T08:47:55;70.30;;;13.57;;
1977;SDS011;989;53.016;8.346;2022-12-11T08:50:22;57.17;;;15.13;;
1977;SDS011;989;53.016;8.346;2022-12-11T08:52:48;69.07;;;13.90;;
1977;SDS011;989;53.016;8.346;2022-12-11T08:55:13;53.40;;;14.97;;
1977;SDS011;989;53.016;8.346;2022-12-11T08:57:39;69.30;;;16.07;;
1977;SDS011;989;53.016;8.346;2022-12-11T09:00:06;52.03;;;16.33;;
1977;SDS011;989;53.016;8.346;2022-12-11T09:02:36;56.30;;;14.82;;
1977;SDS011;989;53.016;8.346;2022-12-11T09:05:02;55.75;;;13.80;;
1977;SDS011;989;53.016;8.346;2022-12-11T09:07:32;56.40;;;15.00;;
1977;SDS011;989;53.016;8.346;2022-12-11T09:09:58;75.32;;;15.55;;
1977;SDS011;989;53.016;8.346;2022-12-11T09:12:25;43.85;;;13.07;;
1977;SDS011;989;53.016;8.346;2022-12-11T09:14:51;61.25;;;13.25;;
1977;SDS011;989;53.016;8.346;2022-12-11T09:17:17;60.73;;;17.23;;
1977;SDS011;989;53.016;8.346;2022-12-11T09:19:43;63.63;;;14.97;;
1977;SDS011;989;53.016;8.346;2022-12-11T09:22:08;53.47;;;14.10;;
1977;SDS011;989;53.016;8.346;2022-12-11T09:24:35;80.10;;;15.80;;
1977;SDS011;989;53.016;8.346;2022-12-11T09:27:02;58.38;;;14.85;;
1977;SDS011;989;53.016;8.346;2022-12-11T09:29:28;53.67;;;12.85;;
1977;SDS011;989;53.016;8.346;2022-12-11T09:31:54;57.60;;;16.03;;
1977;SDS011;989;53.016;8.346;2022-12-11T09:34:20;55.60;;;14.27;;
1977;SDS011;989;53.016;8.346;2022-12-11T09:36:46;76.93;;;14.13;;
1977;SDS011;989;53.016;8.346;2022-12-11T09:39:12;67.23;;;14.80;;
1977;SDS011;989;53.016;8.346;2022-12-11T09:44:45;63.40;;;18.73;;
1977;SDS011;989;53.016;8.346;2022-12-11T09:52:51;45.33;;;11.52;;
1977;SDS011;989;53.016;8.346;2022-12-11T09:55:32;57.83;;;14.93;;
1977;SDS011;989;53.016;8.346;2022-12-11T10:01:31;51.88;;;12.57;;
1977;SDS011;989;53.016;8.346;2022-12-11T10:07:27;53.53;;;10.95;;
1977;SDS011;989;53.016;8.346;2022-12-11T10:13:00;55.60;;;15.32;;
1977;SDS011;989;53.016;8.346;2022-12-11T10:16:03;61.78;;;18.85;;
1977;SDS011;989;53.016;8.346;2022-12-11T10:18:57;72.22;;;21.05;;
1977;SDS011;989;53.016;8.346;2022-12-11T10:21:23;74.90;;;19.13;;
1977;SDS011;989;53.016;8.346;2022-12-11T10:23:51;45.15;;;15.45;;
1977;SDS011;989;53.016;8.346;2022-12-11T10:26:22;60.10;;;18.30;;
1977;SDS011;989;53.016;8.346;2022-12-11T10:28:48;84.35;;;19.13;;
1977;SDS011;989;53.016;8.346;2022-12-11T10:31:15;73.43;;;17.30;;
1977;SDS011;989;53.016;8.346;2022-12-11T10:36:33;47.50;;;15.98;;
1977;SDS011;989;53.016;8.346;2022-12-11T10:39:03;65.03;;;15.73;;
1977;SDS011;989;53.016;8.346;2022-12-11T10:41:39;51.78;;;13.43;;
1977;SDS011;989;53.016;8.346;2022-12-11T10:44:19;43.85;;;13.60;;
1977;SDS011;989;53.016;8.346;2022-12-11T10:46:45;73.05;;;16.20;;
1977;SDS011;989;53.016;8.346;2022-12-11T10:49:29;67.72;;;17.08;;
1977;SDS011;989;53.016;8.346;2022-12-11T10:51:58;70.90;;;19.45;;
1977;SDS011;989;53.016;8.346;2022-12-11T10:54:36;53.88;;;14.27;;
1977;SDS011;989;53.016;8.346;2022-12-11T10:57:05;79.00;;;15.80;;
1977;SDS011;989;53.016;8.346;2022-12-11T10:59:37;49.20;;;14.43;;
1977;SDS011;989;53.016;8.346;2022-12-11T11:05:10;47.20;;;15.77;;
1977;SDS011;989;53.016;8.346;2022-12-11T11:07:49;58.92;;;13.98;;
1977;SDS011;989;53.016;8.346;2022-12-11T11:10:16;67.30;;;15.17;;
1977;SDS011;989;53.016;8.346;2022-12-11T11:12:43;54.58;;;14.60;;
1977;SDS011;989;53.016;8.346;2022-12-11T11:15:19;47.63;;;12.98;;
1977;SDS011;989;53.016;8.346;2022-12-11T11:17:51;58.47;;;14.38;;
1977;SDS011;989;53.016;8.346;2022-12-11T11:20:35;40.42;;;13.35;;
1977;SDS011;989;53.016;8.346;2022-12-11T11:23:02;68.80;;;16.70;;
1977;SDS011;989;53.016;8.346;2022-12-11T11:25:36;57.25;;;13.45;;
1977;SDS011;989;53.016;8.346;2022-12-11T11:28:05;39.10;;;9.90;;
1977;SDS011;989;53.016;8.346;2022-12-11T11:30:53;45.15;;;13.10;;
1977;SDS011;989;53.016;8.346;2022-12-11T11:33:54;32.72;;;10.82;;
1977;SDS011;989;53.016;8.346;2022-12-11T11:36:42;36.13;;;11.52;;
1977;SDS011;989;53.016;8.346;2022-12-11T11:39:17;48.53;;;13.00;;
1977;SDS011;989;53.016;8.346;2022-12-11T11:51:06;48.08;;;10.40;;
1977;SDS011;989;53.016;8.346;2022-12-11T11:53:41;35.10;;;11.73;;
1977;SDS011;989;53.016;8.346;2022-12-11T12:01:44;25.60;;;11.02;;
1977;SDS011;989;53.016;8.346;2022-12-11T12:04:11;35.60;;;11.63;;
1977;SDS011;989;53.016;8.346;2022-12-11T12:06:59;33.20;;;12.65;;
1977;SDS011;989;53.016;8.346;2022-12-11T12:13:01;31.75;;;10.30;;
1977;SDS011;989;53.016;8.346;2022-12-11T12:15:42;25.48;;;8.57;;
1977;SDS011;989;53.016;8.346;2022-12-11T12:18:22;30.42;;;10.25;;
1977;SDS011;989;53.016;8.346;2022-12-11T12:21:18;33.22;;;10.68;;
1977;SDS011;989;53.016;8.346;2022-12-11T12:24:03;29.13;;;9.98;;
1977;SDS011;989;53.016;8.346;2022-12-11T12:26:55;27.55;;;9.35;;
1977;SDS011;989;53.016;8.346;2022-12-11T12:38:06;39.00;;;9.80;;
1977;SDS011;989;53.016;8.346;2022-12-11T12:41:19;25.65;;;8.30;;
1977;SDS011;989;53.016;8.346;2022-12-11T12:49:34;15.73;;;7.30;;
1977;SDS011;989;53.016;8.346;2022-12-11T12:52:20;35.88;;;10.48;;
1977;SDS011;989;53.016;8.346;2022-12-11T12:54:56;37.22;;;10.98;;
1977;SDS011;989;53.016;8.346;2022-12-11T12:57:41;25.55;;;9.63;;
1977;SDS011;989;53.016;8.346;2022-12-11T13:00:26;21.60;;;9.15;;
1977;SDS011;989;53.016;8.346;2022-12-11T13:02:53;27.13;;;9.82;;
1977;SDS011;989;53.016;8.346;2022-12-11T13:05:24;22.95;;;8.40;;
1977;SDS011;989;53.016;8.346;2022-12-11T13:07:54;22.30;;;8.50;;
1977;SDS011;989;53.016;8.346;2022-12-11T13:10:33;23.98;;;8.05;;
1977;SDS011;989;53.016;8.346;2022-12-11T13:13:03;27.65;;;8.13;;
1977;SDS011;989;53.016;8.346;2022-12-11T13:15:32;18.65;;;7.57;;
1977;SDS011;989;53.016;8.346;2022-12-11T13:18:28;24.52;;;8.23;;
1977;SDS011;989;53.016;8.346;2022-12-11T13:20:57;32.95;;;9.85;;
1977;SDS011;989;53.016;8.346;2022-12-11T13:23:30;26.00;;;9.40;;
1977;SDS011;989;53.016;8.346;2022-12-11T13:26:00;32.70;;;9.65;;
1977;SDS011;989;53.016;8.346;2022-12-11T13:28:29;29.92;;;12.18;;
1977;SDS011;989;53.016;8.346;2022-12-11T13:31:44;21.65;;;9.32;;
1977;SDS011;989;53.016;8.346;2022-12-11T13:33:51;32.65;;;12.40;;
1977;SDS011;989;53.016;8.346;2022-12-11T13:38:50;27.00;;;11.10;;
1977;SDS011;989;53.016;8.346;2022-12-11T13:41:20;29.83;;;9.80;;
1977;SDS011;989;53.016;8.346;2022-12-11T13:43:46;22.13;;;8.50;;
1977;SDS011;989;53.016;8.346;2022-12-11T13:46:14;19.27;;;10.15;;
1977;SDS011;989;53.016;8.346;2022-12-11T13:48:50;25.75;;;9.48;;
1977;SDS011;989;53.016;8.346;2022-12-11T13:51:25;19.30;;;7.47;;
1977;SDS011;989;53.016;8.346;2022-12-11T13:54:11;18.58;;;8.68;;
1977;SDS011;989;53.016;8.346;2022-12-11T13:56:51;29.33;;;11.35;;
1977;SDS011;989;53.016;8.346;2022-12-11T13:59:28;27.80;;;9.77;;
1977;SDS011;989;53.016;8.346;2022-12-11T14:02:16;25.98;;;11.73;;
1977;SDS011;989;53.016;8.346;2022-12-11T14:04:50;23.65;;;10.05;;
1977;SDS011;989;53.016;8.346;2022-12-11T14:07:23;32.15;;;9.10;;
1977;SDS011;989;53.016;8.346;2022-12-11T14:09:58;35.88;;;11.55;;
1977;SDS011;989;53.016;8.346;2022-12-11T14:12:29;17.05;;;8.15;;
1977;SDS011;989;53.016;8.346;2022-12-11T14:14:56;26.35;;;9.60;;
1977;SDS011;989;53.016;8.346;2022-12-11T14:17:27;28.13;;;8.20;;
1977;SDS011;989;53.016;8.346;2022-12-11T14:19:57;30.70;;;9.50;;
1977;SDS011;989;53.016;8.346;2022-12-11T14:22:27;33.00;;;9.77;;
1977;SDS011;989;53.016;8.346;2022-12-11T14:24:57;28.08;;;9.52;;
1977;SDS011;989;53.016;8.346;2022-12-11T14:27:27;23.60;;;8.95;;
1977;SDS011;989;53.016;8.346;2022-12-11T14:29:54;33.08;;;12.05;;
1977;SDS011;989;53.016;8.346;2022-12-11T14:32:31;29.43;;;9.57;;
1977;SDS011;989;53.016;8.346;2022-12-11T14:35:16;36.28;;;13.45;;
1977;SDS011;989;53.016;8.346;2022-12-11T14:37:51;26.42;;;9.95;;
1977;SDS011;989;53.016;8.346;2022-12-11T14:40:19;26.52;;;11.45;;
1977;SDS011;989;53.016;8.346;2022-12-11T14:42:57;25.55;;;11.43;;
1977;SDS011;989;53.016;8.346;2022-12-11T14:48:04;31.52;;;11.73;;
1977;SDS011;989;53.016;8.346;2022-12-11T14:50:38;32.80;;;11.35;;
1977;SDS011;989;53.016;8.346;2022-12-11T14:53:14;25.25;;;10.20;;
1977;SDS011;989;53.016;8.346;2022-12-11T14:55:48;33.90;;;11.52;;
1977;SDS011;989;53.016;8.346;2022-12-11T14:58:20;27.25;;;12.38;;
1977;SDS011;989;53.016;8.346;2022-12-11T15:00:55;28.20;;;9.98;;
1977;SDS011;989;53.016;8.346;2022-12-11T15:03:31;34.40;;;12.13;;
1977;SDS011;989;53.016;8.346;2022-12-11T15:06:02;37.45;;;13.00;;
1977;SDS011;989;53.016;8.346;2022-12-11T15:08:47;43.75;;;13.38;;
1977;SDS011;989;53.016;8.346;2022-12-11T15:11:13;33.17;;;14.90;;
1977;SDS011;989;53.016;8.346;2022-12-11T15:13:51;42.92;;;15.45;;
1977;SDS011;989;53.016;8.346;2022-12-11T15:16:22;45.88;;;15.82;;
1977;SDS011;989;53.016;8.346;2022-12-11T15:18:51;35.95;;;14.40;;
1977;SDS011;989;53.016;8.346;2022-12-11T15:21:26;40.22;;;16.73;;
1977;SDS011;989;53.016;8.346;2022-12-11T15:24:03;42.03;;;15.38;;
1977;SDS011;989;53.016;8.346;2022-12-11T15:26:43;34.78;;;14.60;;
1977;SDS011;989;53.016;8.346;2022-12-11T15:29:29;36.30;;;16.40;;
1977;SDS011;989;53.016;8.346;2022-12-11T15:32:18;52.78;;;14.90;;
1977;SDS011;989;53.016;8.346;2022-12-11T15:37:29;47.35;;;16.15;;
1977;SDS011;989;53.016;8.346;2022-12-11T15:39:58;40.10;;;14.02;;
1977;SDS011;989;53.016;8.346;2022-12-11T15:42:36;33.60;;;12.82;;
1977;SDS011;989;53.016;8.346;2022-12-11T15:45:07;34.88;;;16.17;;
1977;SDS011;989;53.016;8.346;2022-12-11T15:47:41;34.78;;;14.05;;
1977;SDS011;989;53.016;8.346;2022-12-11T15:50:24;30.98;;;12.77;;
1977;SDS011;989;53.016;8.346;2022-12-11T15:52:53;28.70;;;11.10;;
1977;SDS011;989;53.016;8.346;2022-12-11T15:55:20;38.05;;;12.30;;
1977;SDS011;989;53.016;8.346;2022-12-11T15:57:48;34.45;;;11.40;;
1977;SDS011;989;53.016;8.346;2022-12-11T16:00:23;26.35;;;11.43;;
1977;SDS011;989;53.016;8.346;2022-12-11T16:02:52;30.48;;;9.82;;
1977;SDS011;989;53.016;8.346;2022-12-11T16:05:18;25.10;;;8.05;;
1977;SDS011;989;53.016;8.346;2022-12-11T16:07:45;36.17;;;10.98;;
1977;SDS011;989;53.016;8.346;2022-12-11T16:10:13;25.35;;;10.10;;
1977;SDS011;989;53.016;8.346;2022-12-11T16:12:41;29.02;;;12.40;;
1977;SDS011;989;53.016;8.346;2022-12-11T16:15:08;32.17;;;11.57;;
1977;SDS011;989;53.016;8.346;2022-12-11T16:17:36;32.08;;;10.98;;
1977;SDS011;989;53.016;8.346;2022-12-11T16:20:04;27.70;;;8.77;;
1977;SDS011;989;53.016;8.346;2022-12-11T16:22:31;29.48;;;10.68;;
1977;SDS011;989;53.016;8.346;2022-12-11T16:24:57;26.30;;;9.40;;
1977;SDS011;989;53.016;8.346;2022-12-11T16:27:22;21.53;;;8.67;;
1977;SDS011;989;53.016;8.346;2022-12-11T16:29:48;26.80;;;10.30;;
1977;SDS011;989;53.016;8.346;2022-12-11T16:32:14;24.70;;;9.95;;
1977;SDS011;989;53.016;8.346;2022-12-11T16:34:40;28.53;;;8.47;;
1977;SDS011;989;53.016;8.346;2022-12-11T16:37:06;29.37;;;9.70;;
1977;SDS011;989;53.016;8.346;2022-12-11T16:39:33;22.63;;;9.00;;
1977;SDS011;989;53.016;8.346;2022-12-11T16:42:02;20.75;;;9.60;;
1977;SDS011;989;53.016;8.346;2022-12-11T16:44:28;20.70;;;10.18;;